AirNav   BOSE A20 Aviation Headset
 
 1755 users online  

1L3 Searchlight Airport
Searchlight, Nevada, USA

GOING TO SEARCHLIGHT?


FAA INFORMATION EFFECTIVE 24 MAY 2018

Location

FAA Identifier: 1L3
Lat/Long: 35-26-40.4000N / 114-54-33.7000W
35-26.673333N / 114-54.561667W
35.4445556 / -114.9093611
(estimated)
Elevation: 3413 ft. / 1040.3 m (surveyed)
Variation: 14E (1985)
From city: 2 miles S of SEARCHLIGHT, NV
Time zone: UTC -7 (UTC -8 during Standard Time)
Zip code: 89046

Airport Operations

Airport use: Open to the public
Activation date: 03/1953
Control tower: no
ARTCC: LOS ANGELES CENTER
FSS: RENO FLIGHT SERVICE STATION
NOTAMs facility: RNO (NOTAM-D service available)
Attendance: UNATNDD
Wind indicator: no
Segmented circle: no

Airport Communications

CTAF: 122.9

Nearby radio navigation aids

VOR radial/distance  VOR name  Freq  Var
GFSr020/22.9GOFFS VORTAC114.4015E
BLDr169/33.1BOULDER CITY VORTAC116.7015E

Airport Services

Parking: tiedowns
Airframe service: NONE
Powerplant service: NONE
Bottled oxygen: NONE
Bulk oxygen: NONE

Runway Information

Runway 16/34

Dimensions: 5040 x 70 ft. / 1536 x 21 m
Surface: asphalt, in fair condition
Runway edge markings: RWY 16/34 MARKINGS FADED.
Gradient: N
RUNWAY 16  RUNWAY 34
Latitude: 35-27.088338N35-26.259758N
Longitude: 114-54.600907W114-54.523957W
Elevation: 3413.0 ft.3300.0 ft.
Gradient: 2.4%2.2% UP
Traffic pattern: leftleft
Runway heading: 162 magnetic, 176 true342 magnetic, 356 true
Markings: basic, in poor conditionbasic, in poor condition
Runway end identifier lights: nono
Obstructions: 5 ft. fence, 275 ft. from runway, 15:1 slope to clear
+5 FT FENCE 83 FT LEFT AND PARALLEL TO CNTRLN.
5 ft. brush, 200 ft. from runway

Airport Ownership and Management from official FAA records

Ownership: Privately-owned
Owner: TURNBULL, LLC
6324 S. 199TH PLACE, SUITE 101
KENT, WA 98032
Phone 253-854-0090
Manager: JONATHAN DANIELS
PRAXIS AEROSPACE CONCEPTS INTL, 1180 CENTER POINT DRIVE, SUITE 200
HENDERSON, NV 89074
Phone (702) 586-1160
PVT SECTION OF ARPT MANAGED BY PACI (HTTP://PRAXISAEROSPACE.COM/). CTC ARPT MGMT, PHONE 702-586-1160 OR EMAIL 1L3@PRAXISAEROSPACE.COM FOR PMSN PRIOR TO USE OR TO OBTAIN ARPT INFO.

Additional Remarks

LGTD 3481 FT MTN SW.
UNLGTD 165 FT PLINE LCTD APRXLY 3.2 MILES SOUTH OF RWY BLO THLD.
GROUND RISES AT CONSTANT RATE NORTH OF ARPT FOR APPROX 2 MILES.
EXTENSIVE RUNWAY CRACKING
AIRFIELD CONDITION NOT MONITORED
UAS / UAV / EXPERIMENTAL ACFT TRAFFIC USING ARPT AND OPRG IN ARPT TRAFFIC AREA BY NOTAM.

Instrument Procedures

There are no published instrument procedures at 1L3.

Some nearby airports with instrument procedures:

KIFP - Laughlin/Bullhead International Airport (24 nm SE)
KBVU - Boulder City Municipal Airport (30 nm N)
KHND - Henderson Executive Airport (34 nm N)
KLAS - Mc Carran International Airport (40 nm N)
KEED - Needles Airport (43 nm S)
 
Loc | Ops | Rwys | IFR | FBO | Links
Com | Nav | Svcs | Stats | Notes

AirNav Hotels Sweepstakes
 
Area around 1L3 (Searchlight Airport)
 
Road maps at: MapQuest Bing Google
 
Aerial photo
WARNING: Photo may not be current or correct
Aerial photo of 1L3 (Searchlight Airport)
Do you have a better or more recent aerial photo of Searchlight Airport that you would like to share? If so, please send us your photo.

 
Sectional chart

 
Airport distance calculator
Flying to Searchlight Airport? Find the distance to fly.

From to 1L3

Sunrise and sunset
Times for 24-May-2018
 Local
(UTC-7)
 Zulu
(UTC)
Morning civil twilight05:0112:01
Sunrise05:3012:30
Sunset19:4302:43
Evening civil twilight20:1203:12

Current date and time
Zulu (UTC)  24-May-2018 20:17:19
Local (UTC-7)  24-May-2018 13:17:19
 
METAR
KBVU 
30nm N 
241955Z AUTO 14012G18KT 10SM CLR 31/M01 A2998 RMK AO2
KHND 
34nm N 
241956Z 14011G22KT 10SM CLR 32/03 A2999 RMK AO2 SLP130 T03170028 $
KIFP 
35nm SE 
241947Z 20014G19KT 20SM SKC 34/00 A2990
KLAS 
40nm N 
241956Z 14010G16KT 10SM CLR 32/02 A2995 RMK AO2 SLP118 T03170022
KEED 
43nm S 
241956Z AUTO 10SM CLR 36/M08 A2992 RMK AO2 SLP097 T03561083
KLSV 
47nm N 
241958Z AUTO 19004KT 10SM CLR 31/01 A2995 RMK AO2 SLP120 T03110014
KVGT 
47nm N 
241953Z 20008G17KT 10SM CLR 31/01 A2996 RMK AO2 WSHFT 1844 SLP138 T03110006
KIGM 
49nm E 
241951Z AUTO VRB03KT 10SM CLR 29/M02 A3006 RMK AO2 SLP115 T02891022 $
TAF
KHND 
34nm N 
241725Z 2418/2518 12010KT P6SM SKC FM242100 16014G23KT P6SM SKC FM250400 19012G20KT P6SM SKC
KIFP 
35nm SE 
241725Z 2418/2518 20009KT P6SM SKC FM242200 19014G22KT P6SM SKC FM250300 16011KT P6SM SKC
KLAS 
40nm N 
241725Z 2418/2524 10009KT P6SM SKC FM242000 14010KT P6SM SKC FM242200 16013G22KT P6SM SKC FM250400 20012G20KT P6SM SKC
NOTAMs
Click for the latest NOTAMs
NOTAMs are issued by the DoD/FAA and will open in a separate window not controlled by AirNav.

 

 
 

Would you like to see your business listed on this page?

 If your business provides an interesting product or service to pilots, flight crews, aircraft, or users of the Searchlight Airport, you should consider listing it here.  To start the listing process, click on the button below
 
Add a business
 

Other Pages about Searchlight Airport

www.mccarran.com/ga_searchlight.asp
 
Update a link
 
Copyright © AirNav, LLC. All rights reserved. Privacy Policy  Contact